createdAt,value
2022-10-10T00:01:58.172Z,96127.97
2022-10-10T00:04:52.128Z,96132.13
2022-10-10T00:07:46.110Z,96132.91
2022-10-10T00:10:40.106Z,96125.31
2022-10-10T00:13:29.199Z,96114.97
2022-10-10T00:16:11.163Z,96115.72
2022-10-10T00:19:05.155Z,96112.25
2022-10-10T00:21:52.113Z,96115.50
2022-10-10T00:24:32.126Z,96119.53
2022-10-10T00:27:21.450Z,96118.63
2022-10-10T00:29:54.183Z,96113.69
2022-10-10T00:32:41.163Z,96111.28
2022-10-10T00:35:21.159Z,96110.56
2022-10-10T00:38:15.160Z,96110.56
2022-10-10T00:41:03.157Z,96116.59
2022-10-10T00:43:37.226Z,96113.38
2022-10-10T00:46:24.141Z,96103.25
2022-10-10T00:48:57.342Z,96100.78
2022-10-10T00:51:44.149Z,96106.75
2022-10-10T00:54:20.206Z,96107.63
2022-10-10T00:57:12.247Z,96104.16
2022-10-10T00:59:48.210Z,96099.03
2022-10-10T01:02:35.168Z,96091.28
2022-10-10T01:05:08.214Z,96091.06
2022-10-10T01:07:55.162Z,96093.53
2022-10-10T01:10:36.190Z,96087.50
2022-10-10T01:13:41.158Z,96085.63
2022-10-10T01:16:22.226Z,96085.56
2022-10-10T01:19:33.156Z,96088.88
2022-10-10T01:22:18.207Z,96082.06
2022-10-10T01:25:11.174Z,96089.56
2022-10-10T01:27:48.200Z,96092.13
2022-10-10T01:30:36.160Z,96092.06
2022-10-10T01:33:38.215Z,96079.31
2022-10-10T01:36:32.171Z,96075.94
2022-10-10T01:39:31.169Z,96085.13
2022-10-10T01:42:33.176Z,96082.50
2022-10-10T01:45:27.152Z,96080.88
2022-10-10T01:48:14.132Z,96082.66
2022-10-10T01:51:13.167Z,96081.81
2022-10-10T01:54:28.133Z,96074.25
2022-10-10T01:57:23.158Z,96074.25
2022-10-10T02:00:20.161Z,96068.31
2022-10-10T02:03:20.157Z,96075.16
2022-10-10T02:06:03.411Z,96072.63
2022-10-10T02:09:00.169Z,96071.72
2022-10-10T02:11:38.242Z,96075.94
2022-10-10T02:14:29.177Z,96069.91
2022-10-10T02:17:15.179Z,96063.03
2022-10-10T02:20:06.172Z,96068.09
2022-10-10T02:22:40.299Z,96063.88
2022-10-10T02:25:36.173Z,96065.50
2022-10-10T02:28:22.261Z,96070.47
2022-10-10T02:31:20.172Z,96077.25
2022-10-10T02:34:17.203Z,96078.16
2022-10-10T02:36:56.236Z,96070.50
2022-10-10T02:39:47.177Z,96074.72
2022-10-10T02:42:24.265Z,96067.91
2022-10-10T02:45:12.245Z,96062.88
2022-10-10T02:47:45.268Z,96065.44
2022-10-10T02:50:33.160Z,96061.16
2022-10-10T02:53:14.163Z,96055.03
2022-10-10T02:56:01.179Z,96061.69
2022-10-10T02:58:41.161Z,96065.16
2022-10-10T03:01:28.213Z,96060.09
2022-10-10T03:04:01.814Z,96053.16
2022-10-10T03:06:48.187Z,96057.38
2022-10-10T03:09:21.281Z,96051.47
2022-10-10T03:12:08.170Z,96057.50
2022-10-10T03:14:41.334Z,96061.00
2022-10-10T03:17:35.190Z,96059.50
2022-10-10T03:20:29.196Z,96058.78
2022-10-10T03:23:23.203Z,96056.31
2022-10-10T03:26:11.221Z,96047.94
2022-10-10T03:28:44.807Z,96044.63
2022-10-10T03:31:31.193Z,96049.69
2022-10-10T03:34:05.286Z,96048.00
2022-10-10T03:36:52.206Z,96043.72
2022-10-10T03:39:25.275Z,96038.72
2022-10-10T03:42:12.248Z,96047.22
2022-10-10T03:44:45.259Z,96043.78
2022-10-10T03:47:32.208Z,96047.09
2022-10-10T03:50:05.280Z,96042.88
2022-10-10T03:52:52.487Z,96028.47
2022-10-10T03:55:33.215Z,96030.00
2022-10-10T03:58:27.200Z,96029.94
2022-10-10T04:01:14.345Z,96025.53
2022-10-10T04:03:51.897Z,96020.25
2022-10-10T04:06:39.195Z,96023.59
2022-10-10T04:09:20.269Z,96009.41
2022-10-10T04:12:07.209Z,96020.31
2022-10-10T04:14:40.307Z,96011.03
2022-10-10T04:17:34.258Z,96009.34
2022-10-10T04:20:28.265Z,96012.78
2022-10-10T04:23:15.201Z,96004.59
2022-10-10T04:25:48.513Z,95997.03
2022-10-10T04:28:35.223Z,96000.44
2022-10-10T04:31:08.318Z,96000.53
2022-10-10T04:33:55.223Z,95986.22
2022-10-10T04:36:35.214Z,95987.03
2022-10-10T04:39:29.255Z,95985.38
2022-10-10T04:42:23.248Z,95986.19
2022-10-10T04:45:13.274Z,95982.88
2022-10-10T04:47:53.214Z,95982.81
2022-10-10T04:50:42.287Z,95986.19
2022-10-10T04:53:15.285Z,95996.34
2022-10-10T04:56:02.259Z,95997.31
2022-10-10T04:58:42.252Z,95995.56
2022-10-10T05:01:36.322Z,96003.22
2022-10-10T05:04:23.230Z,96003.19
2022-10-10T05:07:03.215Z,96001.41
2022-10-10T05:09:57.221Z,95998.88
2022-10-10T05:12:51.460Z,96003.03
2022-10-10T05:15:48.257Z,96001.34
2022-10-10T05:18:44.257Z,95994.50
2022-10-10T05:21:31.233Z,95999.34
2022-10-10T05:24:04.316Z,95999.31
2022-10-10T05:26:51.227Z,96001.88
2022-10-10T05:29:31.178Z,96002.78
2022-10-10T05:32:25.242Z,95993.44
2022-10-10T05:35:12.356Z,96002.84
2022-10-10T05:37:45.326Z,95992.84
2022-10-10T05:40:32.288Z,95999.66
2022-10-10T05:43:05.326Z,95991.28
2022-10-10T05:45:52.258Z,95993.88
2022-10-10T05:48:25.296Z,95995.50
2022-10-10T05:51:13.329Z,96001.41
2022-10-10T05:53:53.243Z,95992.97
2022-10-10T05:56:47.254Z,95991.34
2022-10-10T05:59:36.252Z,95992.19
2022-10-10T06:02:18.575Z,95999.03
2022-10-10T06:05:05.241Z,95994.00
2022-10-10T06:07:59.813Z,95999.16
2022-10-10T06:10:48.261Z,95998.38
2022-10-10T06:13:30.264Z,95989.19
2022-10-10T06:16:24.259Z,95987.66
2022-10-10T06:19:18.272Z,95989.34
2022-10-10T06:22:05.254Z,95996.88
2022-10-10T06:24:48.442Z,95996.03
2022-10-10T06:27:44.282Z,95997.75
2022-10-10T06:30:38.253Z,95986.84
2022-10-10T06:33:26.265Z,95989.53
2022-10-10T06:36:00.398Z,95991.25
2022-10-10T06:38:49.260Z,95988.84
2022-10-10T06:41:29.263Z,95984.66
2022-10-10T06:44:23.254Z,95989.84
2022-10-10T06:47:10.261Z,95987.44
2022-10-10T06:49:43.366Z,95987.44
2022-10-10T06:52:30.253Z,95989.22
2022-10-10T06:55:03.344Z,95989.34
2022-10-10T06:57:50.281Z,95987.97
2022-10-10T07:00:30.294Z,95989.75
2022-10-10T07:03:19.267Z,95992.50
2022-10-10T07:05:56.366Z,95995.19
2022-10-10T07:08:44.281Z,95993.50
2022-10-10T07:11:17.369Z,95996.09
2022-10-10T07:14:04.284Z,96000.41
2022-10-10T07:16:37.335Z,95994.59
2022-10-10T07:19:25.256Z,95987.78
2022-10-10T07:22:05.289Z,95984.38
2022-10-10T07:24:52.287Z,95986.13
2022-10-10T07:27:32.309Z,95993.94
2022-10-10T07:30:26.282Z,95983.13
2022-10-10T07:33:13.246Z,95980.69
2022-10-10T07:35:46.340Z,95978.34
2022-10-10T07:38:33.291Z,95981.84
2022-10-10T07:41:06.581Z,95974.34
2022-10-10T07:43:53.277Z,95979.63
2022-10-10T07:46:34.257Z,95976.66
2022-10-10T07:49:21.318Z,95973.34
2022-10-10T07:51:58.607Z,95981.97
2022-10-10T07:54:49.298Z,95972.81
2022-10-10T07:57:29.303Z,95978.03
2022-10-10T08:00:24.326Z,95968.94
2022-10-10T08:03:18.471Z,95969.94
2022-10-10T08:06:12.305Z,95960.81
2022-10-10T08:09:06.298Z,95961.03
2022-10-10T08:11:53.289Z,95960.44
2022-10-10T08:14:26.358Z,95958.97
2022-10-10T08:17:13.297Z,95955.81
2022-10-10T08:19:46.414Z,95952.63
2022-10-10T08:22:33.284Z,95950.41
2022-10-10T08:25:06.364Z,95943.84
2022-10-10T08:27:53.296Z,95939.84
2022-10-10T08:30:26.367Z,95936.69
2022-10-10T08:33:13.298Z,95934.34
2022-10-10T08:35:53.293Z,95931.16
2022-10-10T08:38:40.305Z,95935.59
2022-10-10T08:41:48.313Z,95931.50
2022-10-10T08:44:46.288Z,95932.53
2022-10-10T08:47:26.425Z,95935.19
2022-10-10T08:50:28.309Z,95933.59
2022-10-10T08:53:17.370Z,95923.47
2022-10-10T08:56:04.311Z,95922.69
2022-10-10T08:58:43.396Z,95913.34
2022-10-10T09:02:17.561Z,95910.00
2022-10-10T09:04:35.816Z,95908.31
2022-10-10T09:07:35.313Z,95910.00
2022-10-10T09:10:27.292Z,95896.34
2022-10-10T09:13:44.334Z,95892.91
2022-10-10T09:16:55.315Z,95890.28
2022-10-10T09:20:06.347Z,95893.63
2022-10-10T09:23:06.315Z,95887.59
2022-10-10T09:25:52.356Z,95889.19
2022-10-10T09:28:51.370Z,95877.16
2022-10-10T09:31:54.342Z,95880.47
2022-10-10T09:34:48.324Z,95879.50
2022-10-10T09:37:46.173Z,95878.56
2022-10-10T09:40:51.328Z,95868.28
2022-10-10T09:43:26.391Z,95869.97
2022-10-10T09:46:13.354Z,95865.69
2022-10-10T09:48:48.456Z,95863.13
2022-10-10T09:51:37.343Z,95868.16
2022-10-10T09:54:13.393Z,95855.25
2022-10-10T09:57:02.348Z,95860.28
2022-10-10T09:59:50.440Z,95857.63
2022-10-10T10:02:37.315Z,95854.22
2022-10-10T10:05:25.409Z,95850.78
2022-10-10T10:08:23.319Z,95851.56
2022-10-10T10:10:58.466Z,95854.84
2022-10-10T10:13:45.344Z,95848.78
2022-10-10T10:16:27.356Z,95842.00
2022-10-10T10:19:51.355Z,95840.31
2022-10-10T10:22:45.351Z,95833.56
2022-10-10T10:25:37.487Z,95828.50
2022-10-10T10:28:28.443Z,95827.66
2022-10-10T10:31:05.527Z,95818.16
2022-10-10T10:34:05.343Z,95812.19
2022-10-10T10:37:04.441Z,95820.72
2022-10-10T10:40:11.349Z,95807.91
2022-10-10T10:42:54.387Z,95814.72
2022-10-10T10:45:48.379Z,95806.00
2022-10-10T10:48:47.376Z,95802.56
2022-10-10T10:51:56.372Z,95793.13
2022-10-10T10:55:01.365Z,95794.03
2022-10-10T11:01:44.767Z,95789.69
2022-10-10T11:05:24.798Z,95776.75
2022-10-10T11:08:03.348Z,95779.91
2022-10-10T11:11:26.377Z,95777.09
2022-10-10T11:14:05.546Z,95773.34
2022-10-10T11:17:05.388Z,95771.50
2022-10-10T11:19:56.789Z,95767.84
2022-10-10T11:22:57.397Z,95762.63
2022-10-10T11:25:37.574Z,95758.22
2022-10-10T11:28:40.465Z,95760.56
2022-10-10T11:31:27.455Z,95759.63
2022-10-10T11:34:21.368Z,95753.44
2022-10-10T11:37:02.391Z,95748.16
2022-10-10T11:40:09.377Z,95741.31
2022-10-10T11:43:01.401Z,95735.22
2022-10-10T11:45:40.467Z,95735.91
2022-10-10T11:48:34.400Z,95730.59
2022-10-10T11:51:16.076Z,95727.94
2022-10-10T11:54:08.412Z,95725.47
2022-10-10T11:56:47.546Z,95722.97
2022-10-10T11:59:39.415Z,95728.09
2022-10-10T12:02:27.879Z,95715.31
2022-10-10T12:05:26.398Z,95717.19
2022-10-10T12:08:24.489Z,95717.28
2022-10-10T12:11:32.433Z,95713.94
2022-10-10T12:14:07.803Z,95705.50
2022-10-10T12:16:55.422Z,95699.50
2022-10-10T12:19:37.415Z,95702.84
2022-10-10T12:22:40.405Z,95703.72
2022-10-10T12:25:28.391Z,95699.19
2022-10-10T12:28:12.558Z,95691.28
2022-10-10T12:30:59.704Z,95692.09
2022-10-10T12:33:40.444Z,95686.09
2022-10-10T12:36:34.406Z,95686.19
2022-10-10T12:39:21.401Z,95696.50
2022-10-10T12:41:54.483Z,95683.63
2022-10-10T12:44:41.391Z,95678.47
2022-10-10T12:47:35.878Z,95675.91
2022-10-10T12:50:40.438Z,95673.28
2022-10-10T12:53:20.603Z,95681.78
2022-10-10T12:56:03.433Z,95674.81
2022-10-10T12:58:47.443Z,95679.88
2022-10-10T13:01:43.488Z,95670.38
2022-10-10T13:04:39.423Z,95668.63
2022-10-10T13:07:28.457Z,95664.41
2022-10-10T13:10:12.603Z,95655.03
2022-10-10T13:13:33.461Z,95653.28
2022-10-10T13:16:20.436Z,95647.25
2022-10-10T13:19:14.453Z,95660.19
2022-10-10T13:22:02.436Z,95643.06
2022-10-10T13:24:39.527Z,95653.31
2022-10-10T13:27:34.447Z,95647.25
2022-10-10T13:30:08.634Z,95648.06
2022-10-10T13:32:56.459Z,95648.06
2022-10-10T13:35:40.423Z,95644.69
2022-10-10T13:38:32.468Z,95646.41
2022-10-10T13:41:07.508Z,95642.97
2022-10-10T13:43:54.438Z,95648.16
2022-10-10T13:46:39.649Z,95640.34
2022-10-10T13:49:36.447Z,95640.41
2022-10-10T13:52:28.538Z,95635.22
2022-10-10T13:55:42.489Z,95646.44
2022-10-10T13:58:23.463Z,95632.75
2022-10-10T14:01:11.473Z,95634.50
2022-10-10T14:03:44.517Z,95636.25
2022-10-10T14:06:34.445Z,95626.00
2022-10-10T14:09:26.543Z,95629.44
2022-10-10T14:12:30.491Z,95620.00
2022-10-10T14:15:12.462Z,95617.47
2022-10-10T14:18:06.471Z,95620.06
2022-10-10T14:21:02.622Z,95615.75
2022-10-10T14:23:56.479Z,95612.25
2022-10-10T14:26:44.490Z,95611.41
2022-10-10T14:29:22.655Z,95607.97
2022-10-10T14:32:09.458Z,95607.13
2022-10-10T14:34:42.542Z,95600.25
2022-10-10T14:37:34.481Z,95604.53
2022-10-10T14:40:07.555Z,95604.53
2022-10-10T14:42:54.465Z,95600.31
2022-10-10T14:45:27.612Z,95605.47
2022-10-10T14:48:14.470Z,95598.66
2022-10-10T14:50:51.298Z,95598.75
2022-10-10T14:53:38.494Z,95599.69
2022-10-10T14:56:11.581Z,95598.88
2022-10-10T14:58:58.472Z,95592.16
2022-10-10T15:01:31.544Z,95590.59
2022-10-10T15:04:18.508Z,95590.78
2022-10-10T15:07:12.403Z,95584.91
2022-10-10T15:13:13.501Z,95580.19
2022-10-10T15:15:46.560Z,95581.19
2022-10-10T15:18:53.582Z,95581.28
2022-10-10T15:21:41.489Z,95587.44
2022-10-10T15:24:14.585Z,95590.16
2022-10-10T15:27:01.512Z,95579.19
2022-10-10T15:29:41.549Z,95575.94
2022-10-10T15:32:28.497Z,95577.00
2022-10-10T15:35:08.485Z,95581.47
2022-10-10T15:37:55.492Z,95574.03
2022-10-10T15:40:30.627Z,95577.63
2022-10-10T15:43:17.520Z,95578.69
2022-10-10T15:45:55.832Z,95578.88
2022-10-10T15:48:42.528Z,95585.88
2022-10-10T15:51:22.502Z,95586.03
2022-10-10T15:54:09.513Z,95586.22
2022-10-10T15:56:42.614Z,95586.34
2022-10-10T15:59:29.569Z,95591.59
2022-10-10T16:02:02.625Z,95589.16
2022-10-10T16:04:49.533Z,95582.47
2022-10-10T16:07:29.239Z,95589.41
2022-10-10T16:10:17.518Z,95590.38
2022-10-10T16:12:57.531Z,95593.88
2022-10-10T16:15:51.527Z,95590.56
2022-10-10T16:18:46.512Z,95600.91
2022-10-10T16:21:40.524Z,95600.06
2022-10-10T16:24:27.531Z,95599.28
2022-10-10T16:27:02.103Z,95594.28
2022-10-10T16:29:48.531Z,95597.81
2022-10-10T16:32:21.584Z,95598.75
2022-10-10T16:35:08.539Z,95609.03
2022-10-10T16:37:48.567Z,95600.59
2022-10-10T16:40:42.531Z,95600.66
2022-10-10T16:43:29.538Z,95596.44
2022-10-10T16:46:06.797Z,95597.34
2022-10-10T16:48:53.526Z,95597.44
2022-10-10T16:51:28.765Z,95590.66
2022-10-10T16:54:15.541Z,95595.78
2022-10-10T16:56:48.683Z,95595.84
2022-10-10T16:59:35.521Z,95591.66
2022-10-10T17:02:15.546Z,95599.31
2022-10-10T17:05:04.560Z,95597.66
2022-10-10T17:07:44.561Z,95588.31
2022-10-10T17:10:38.555Z,95592.59
2022-10-10T17:13:25.563Z,95594.31
2022-10-10T17:16:21.788Z,95599.44
2022-10-10T17:19:14.520Z,95596.91
2022-10-10T17:22:01.565Z,95599.47
2022-10-10T17:24:34.645Z,95603.69
2022-10-10T17:27:21.568Z,95600.31
2022-10-10T17:29:54.744Z,95605.41
2022-10-10T17:32:41.583Z,95602.88
2022-10-10T17:35:16.621Z,95604.56
2022-10-10T17:38:21.239Z,95601.19
2022-10-10T17:41:11.569Z,95592.69
2022-10-10T17:44:05.595Z,95596.94
2022-10-10T17:46:59.863Z,95595.22
2022-10-10T17:49:51.574Z,95591.88
2022-10-10T17:52:25.256Z,95592.69
2022-10-10T17:55:11.572Z,95600.34
2022-10-10T17:57:51.560Z,95598.66
2022-10-10T18:00:38.576Z,95593.56
2022-10-10T18:03:11.616Z,95590.16
2022-10-10T18:05:58.601Z,95592.72
2022-10-10T18:08:38.580Z,95591.84
2022-10-10T18:11:28.557Z,95599.47
2022-10-10T18:14:09.570Z,95598.63
2022-10-10T18:16:56.568Z,95594.38
2022-10-10T18:19:29.807Z,95592.66
2022-10-10T18:22:16.594Z,95585.03
2022-10-10T18:24:56.586Z,95595.22
2022-10-10T18:27:43.603Z,95594.38
2022-10-10T18:30:17.638Z,95585.84
2022-10-10T18:33:04.583Z,95586.72
2022-10-10T18:35:44.592Z,95583.31
2022-10-10T18:38:38.616Z,95578.22
2022-10-10T18:41:39.581Z,95578.22
2022-10-10T18:44:26.598Z,95576.50
2022-10-10T18:47:02.109Z,95570.53
2022-10-10T18:49:48.578Z,95580.72
2022-10-10T18:52:28.611Z,95575.63
2022-10-10T18:55:24.577Z,95575.59
2022-10-10T18:58:11.585Z,95573.91
2022-10-10T19:00:51.644Z,95576.44
2022-10-10T19:03:38.603Z,95573.03
2022-10-10T19:06:21.607Z,95582.34
2022-10-10T19:09:09.590Z,95584.03
2022-10-10T19:11:44.677Z,95584.84
2022-10-10T19:14:31.585Z,95575.53
2022-10-10T19:17:11.606Z,95579.75
2022-10-10T19:20:05.606Z,95575.50
2022-10-10T19:22:52.585Z,95580.56
2022-10-10T19:25:33.614Z,95582.22
2022-10-10T19:28:20.610Z,95575.44
2022-10-10T19:30:54.687Z,95573.69
2022-10-10T19:33:42.621Z,95570.28
2022-10-10T19:36:18.727Z,95576.22
2022-10-10T19:39:06.611Z,95582.16
2022-10-10T19:41:46.585Z,95578.72
2022-10-10T19:44:40.618Z,95584.66
2022-10-10T19:47:34.604Z,95573.63
2022-10-10T19:50:21.625Z,95580.34
2022-10-10T19:53:04.899Z,95580.31
2022-10-10T19:56:02.854Z,95583.69
2022-10-10T19:58:43.633Z,95580.25
2022-10-10T20:01:39.649Z,95576.84
2022-10-10T20:04:33.617Z,95576.84
2022-10-10T20:07:20.599Z,95577.66
2022-10-10T20:10:00.629Z,95575.91
2022-10-10T20:12:47.619Z,95577.59
2022-10-10T20:15:20.714Z,95575.00
2022-10-10T20:18:07.626Z,95586.84
2022-10-10T20:20:47.619Z,95585.13
2022-10-10T20:23:41.651Z,95585.09
2022-10-10T20:26:29.621Z,95581.69
2022-10-10T20:29:03.726Z,95591.81
2022-10-10T20:31:50.620Z,95585.06
2022-10-10T20:34:30.602Z,95582.50
2022-10-10T20:37:24.632Z,95579.97
2022-10-10T20:40:11.633Z,95578.25
2022-10-10T20:42:44.941Z,95574.00
2022-10-10T20:45:31.636Z,95574.88
2022-10-10T20:48:11.652Z,95581.59
2022-10-10T20:50:58.647Z,95584.16
2022-10-10T20:53:31.724Z,95589.22
2022-10-10T20:56:19.653Z,95582.44
2022-10-10T20:58:53.673Z,95585.78
2022-10-10T21:01:41.715Z,95578.16
2022-10-10T21:04:23.646Z,95592.53
2022-10-10T21:07:17.655Z,95595.06
2022-10-10T21:10:11.646Z,95593.38
2022-10-10T21:12:58.633Z,95593.31
2022-10-10T21:15:31.754Z,95592.44
2022-10-10T21:18:18.645Z,95590.72
2022-10-10T21:20:51.781Z,95592.44
2022-10-10T21:23:50.087Z,95594.97
2022-10-10T21:26:35.637Z,95603.44
2022-10-10T21:29:22.662Z,95600.00
2022-10-10T21:32:02.632Z,95600.81
2022-10-10T21:34:56.687Z,95609.25
2022-10-10T21:37:43.650Z,95604.97
2022-10-10T21:40:24.661Z,95600.72
2022-10-10T21:43:18.660Z,95597.31
2022-10-10T21:46:13.633Z,95596.47
2022-10-10T21:48:53.661Z,95601.53
2022-10-10T21:51:52.656Z,95596.41
2022-10-10T21:54:39.667Z,95595.56
2022-10-10T21:57:12.726Z,95597.22
2022-10-10T21:59:59.682Z,95592.09
2022-10-10T22:02:32.749Z,95597.16
2022-10-10T22:05:20.655Z,95599.75
2022-10-10T22:08:00.659Z,95603.13
2022-10-10T22:10:57.655Z,95601.38
2022-10-10T22:13:44.694Z,95612.38
2022-10-10T22:16:17.777Z,95601.38
2022-10-10T22:19:04.690Z,95603.00
2022-10-10T22:21:38.749Z,95598.78
2022-10-10T22:24:25.683Z,95596.22
2022-10-10T22:26:58.769Z,95597.09
2022-10-10T22:29:45.682Z,95598.81
2022-10-10T22:32:25.681Z,95589.50
2022-10-10T22:35:12.706Z,95596.25
2022-10-10T22:37:52.666Z,95596.19
2022-10-10T22:40:46.719Z,95594.47
2022-10-10T22:43:40.682Z,95591.03
2022-10-10T22:46:34.689Z,95596.91
2022-10-10T22:49:21.688Z,95591.81
2022-10-10T22:51:54.771Z,95595.16
2022-10-10T22:54:41.691Z,95595.16
2022-10-10T22:57:14.730Z,95590.91
2022-10-10T23:00:01.700Z,95593.50
2022-10-10T23:02:34.753Z,95588.44
2022-10-10T23:05:21.709Z,95594.28
2022-10-10T23:07:54.795Z,95592.53
2022-10-10T23:10:41.679Z,95591.69
2022-10-10T23:13:14.757Z,95589.13
2022-10-10T23:16:01.967Z,95591.59
2022-10-10T23:18:35.784Z,95586.56
2022-10-10T23:21:29.695Z,95593.34
2022-10-10T23:24:23.709Z,95588.25
2022-10-10T23:27:17.715Z,95583.09
2022-10-10T23:30:11.671Z,95589.81
2022-10-10T23:32:58.707Z,95586.38
2022-10-10T23:35:31.758Z,95589.72
2022-10-10T23:38:18.715Z,95595.66
2022-10-10T23:40:58.740Z,95596.50
2022-10-10T23:43:52.700Z,95600.66
2022-10-10T23:46:46.692Z,95596.34
2022-10-10T23:49:40.704Z,95596.31
2022-10-10T23:52:27.723Z,95591.31
2022-10-10T23:55:07.704Z,95596.38
2022-10-10T23:57:54.732Z,95594.69
